sensor_id;sensor_type;location;lat;lon;timestamp;P1;durP1;ratioP1;P2;durP2;ratioP2
45254;SDS011;30989;52.078;21.014;2023-02-12T00:02:14;3.95;;;1.33;;
45254;SDS011;30989;52.078;21.014;2023-02-12T00:04:39;2.90;;;1.20;;
45254;SDS011;30989;52.078;21.014;2023-02-12T00:07:05;2.90;;;0.95;;
45254;SDS011;30989;52.078;21.014;2023-02-12T00:09:31;3.47;;;1.10;;
45254;SDS011;30989;52.078;21.014;2023-02-12T00:11:56;4.10;;;1.10;;
45254;SDS011;30989;52.078;21.014;2023-02-12T00:14:22;3.40;;;1.55;;
45254;SDS011;30989;52.078;21.014;2023-02-12T00:16:47;2.08;;;1.00;;
45254;SDS011;30989;52.078;21.014;2023-02-12T00:19:13;2.28;;;0.82;;
45254;SDS011;30989;52.078;21.014;2023-02-12T00:21:38;4.30;;;1.52;;
45254;SDS011;30989;52.078;21.014;2023-02-12T00:24:03;2.70;;;0.90;;
45254;SDS011;30989;52.078;21.014;2023-02-12T00:26:29;5.45;;;1.40;;
45254;SDS011;30989;52.078;21.014;2023-02-12T00:28:54;4.50;;;1.25;;
45254;SDS011;30989;52.078;21.014;2023-02-12T00:31:25;3.90;;;1.33;;
45254;SDS011;30989;52.078;21.014;2023-02-12T00:33:54;3.05;;;0.90;;
45254;SDS011;30989;52.078;21.014;2023-02-12T00:36:21;2.50;;;0.98;;
45254;SDS011;30989;52.078;21.014;2023-02-12T00:38:50;4.15;;;0.95;;
45254;SDS011;30989;52.078;21.014;2023-02-12T00:41:16;2.75;;;0.93;;
45254;SDS011;30989;52.078;21.014;2023-02-12T00:43:42;2.88;;;1.45;;
45254;SDS011;30989;52.078;21.014;2023-02-12T00:46:07;3.92;;;1.15;;
45254;SDS011;30989;52.078;21.014;2023-02-12T00:48:34;6.10;;;1.27;;
45254;SDS011;30989;52.078;21.014;2023-02-12T00:51:00;2.50;;;0.95;;
45254;SDS011;30989;52.078;21.014;2023-02-12T00:53:26;3.13;;;1.05;;
45254;SDS011;30989;52.078;21.014;2023-02-12T00:55:53;2.53;;;0.90;;
45254;SDS011;30989;52.078;21.014;2023-02-12T00:58:19;4.75;;;1.20;;
45254;SDS011;30989;52.078;21.014;2023-02-12T01:00:45;3.90;;;1.00;;
45254;SDS011;30989;52.078;21.014;2023-02-12T01:03:10;2.95;;;0.95;;
45254;SDS011;30989;52.078;21.014;2023-02-12T01:05:36;1.77;;;0.90;;
45254;SDS011;30989;52.078;21.014;2023-02-12T01:08:01;1.98;;;0.88;;
45254;SDS011;30989;52.078;21.014;2023-02-12T01:10:28;3.03;;;1.10;;
45254;SDS011;30989;52.078;21.014;2023-02-12T01:12:54;2.47;;;1.30;;
45254;SDS011;30989;52.078;21.014;2023-02-12T01:15:21;2.22;;;0.88;;
45254;SDS011;30989;52.078;21.014;2023-02-12T01:17:46;2.88;;;1.08;;
45254;SDS011;30989;52.078;21.014;2023-02-12T01:20:17;2.97;;;0.80;;
45254;SDS011;30989;52.078;21.014;2023-02-12T01:22:44;6.78;;;1.00;;
45254;SDS011;30989;52.078;21.014;2023-02-12T01:25:10;3.08;;;1.00;;
45254;SDS011;30989;52.078;21.014;2023-02-12T01:27:36;4.68;;;1.00;;
45254;SDS011;30989;52.078;21.014;2023-02-12T01:30:01;4.28;;;1.00;;
45254;SDS011;30989;52.078;21.014;2023-02-12T01:32:28;3.75;;;1.00;;
45254;SDS011;30989;52.078;21.014;2023-02-12T01:34:54;4.93;;;1.35;;
45254;SDS011;30989;52.078;21.014;2023-02-12T01:37:20;3.88;;;1.27;;
45254;SDS011;30989;52.078;21.014;2023-02-12T01:39:45;1.95;;;0.90;;
45254;SDS011;30989;52.078;21.014;2023-02-12T01:42:14;2.05;;;0.88;;
45254;SDS011;30989;52.078;21.014;2023-02-12T01:47:38;4.93;;;1.00;;
45254;SDS011;30989;52.078;21.014;2023-02-12T01:50:09;2.40;;;0.88;;
45254;SDS011;30989;52.078;21.014;2023-02-12T01:52:38;3.47;;;0.95;;
45254;SDS011;30989;52.078;21.014;2023-02-12T01:55:07;2.53;;;1.10;;
45254;SDS011;30989;52.078;21.014;2023-02-12T01:57:35;2.35;;;0.90;;
45254;SDS011;30989;52.078;21.014;2023-02-12T02:00:07;2.78;;;1.00;;
45254;SDS011;30989;52.078;21.014;2023-02-12T02:02:42;2.60;;;1.08;;
45254;SDS011;30989;52.078;21.014;2023-02-12T02:05:10;2.90;;;0.73;;
45254;SDS011;30989;52.078;21.014;2023-02-12T02:07:39;2.35;;;0.73;;
45254;SDS011;30989;52.078;21.014;2023-02-12T02:10:07;2.25;;;0.80;;
45254;SDS011;30989;52.078;21.014;2023-02-12T02:12:34;2.75;;;0.77;;
45254;SDS011;30989;52.078;21.014;2023-02-12T02:15:20;2.42;;;0.70;;
45254;SDS011;30989;52.078;21.014;2023-02-12T02:26:32;3.63;;;0.70;;
45254;SDS011;30989;52.078;21.014;2023-02-12T02:31:51;1.52;;;0.70;;
45254;SDS011;30989;52.078;21.014;2023-02-12T02:34:41;1.98;;;0.80;;
45254;SDS011;30989;52.078;21.014;2023-02-12T02:37:31;4.22;;;0.60;;
45254;SDS011;30989;52.078;21.014;2023-02-12T02:40:13;1.30;;;0.60;;
45254;SDS011;30989;52.078;21.014;2023-02-12T02:45:24;1.23;;;0.55;;
45254;SDS011;30989;52.078;21.014;2023-02-12T02:48:37;2.47;;;0.70;;
45254;SDS011;30989;52.078;21.014;2023-02-12T02:50:51;2.28;;;0.90;;
45254;SDS011;30989;52.078;21.014;2023-02-12T02:53:34;2.35;;;0.77;;
45254;SDS011;30989;52.078;21.014;2023-02-12T02:56:05;1.33;;;0.60;;
45254;SDS011;30989;52.078;21.014;2023-02-12T02:58:38;2.35;;;0.80;;
45254;SDS011;30989;52.078;21.014;2023-02-12T03:01:20;3.60;;;0.90;;
45254;SDS011;30989;52.078;21.014;2023-02-12T03:03:50;1.75;;;0.70;;
45254;SDS011;30989;52.078;21.014;2023-02-12T03:06:24;5.50;;;1.98;;
45254;SDS011;30989;52.078;21.014;2023-02-12T03:08:55;3.65;;;0.80;;
45254;SDS011;30989;52.078;21.014;2023-02-12T03:11:26;1.38;;;0.70;;
45254;SDS011;30989;52.078;21.014;2023-02-12T03:13:58;1.60;;;0.65;;
45254;SDS011;30989;52.078;21.014;2023-02-12T03:16:30;2.15;;;1.00;;
45254;SDS011;30989;52.078;21.014;2023-02-12T03:21:27;1.33;;;0.52;;
45254;SDS011;30989;52.078;21.014;2023-02-12T03:24:20;1.15;;;0.52;;
45254;SDS011;30989;52.078;21.014;2023-02-12T03:26:46;5.15;;;0.80;;
45254;SDS011;30989;52.078;21.014;2023-02-12T03:29:16;0.88;;;0.50;;
45254;SDS011;30989;52.078;21.014;2023-02-12T03:37:11;2.15;;;0.75;;
45254;SDS011;30989;52.078;21.014;2023-02-12T03:42:32;1.92;;;0.80;;
45254;SDS011;30989;52.078;21.014;2023-02-12T03:45:03;2.35;;;1.17;;
45254;SDS011;30989;52.078;21.014;2023-02-12T03:48:00;3.33;;;1.00;;
45254;SDS011;30989;52.078;21.014;2023-02-12T03:53:05;1.50;;;0.50;;
45254;SDS011;30989;52.078;21.014;2023-02-12T03:55:31;2.80;;;0.77;;
45254;SDS011;30989;52.078;21.014;2023-02-12T03:58:00;3.00;;;0.60;;
45254;SDS011;30989;52.078;21.014;2023-02-12T04:00:27;1.73;;;1.02;;
45254;SDS011;30989;52.078;21.014;2023-02-12T04:02:53;2.28;;;0.75;;
45254;SDS011;30989;52.078;21.014;2023-02-12T04:05:23;1.80;;;0.88;;
45254;SDS011;30989;52.078;21.014;2023-02-12T04:07:50;3.47;;;0.65;;
45254;SDS011;30989;52.078;21.014;2023-02-12T04:10:24;1.77;;;0.70;;
45254;SDS011;30989;52.078;21.014;2023-02-12T04:13:15;1.63;;;0.50;;
45254;SDS011;30989;52.078;21.014;2023-02-12T04:15:50;1.58;;;0.77;;
45254;SDS011;30989;52.078;21.014;2023-02-12T04:26:48;1.13;;;0.60;;
45254;SDS011;30989;52.078;21.014;2023-02-12T04:40:21;1.50;;;0.47;;
45254;SDS011;30989;52.078;21.014;2023-02-12T04:42:48;1.95;;;0.88;;
45254;SDS011;30989;52.078;21.014;2023-02-12T04:45:23;1.25;;;0.55;;
45254;SDS011;30989;52.078;21.014;2023-02-12T04:47:51;2.22;;;0.75;;
45254;SDS011;30989;52.078;21.014;2023-02-12T04:50:17;1.35;;;0.65;;
45254;SDS011;30989;52.078;21.014;2023-02-12T04:52:43;1.45;;;0.68;;
45254;SDS011;30989;52.078;21.014;2023-02-12T04:55:08;2.03;;;0.60;;
45254;SDS011;30989;52.078;21.014;2023-02-12T04:57:33;2.30;;;0.70;;
45254;SDS011;30989;52.078;21.014;2023-02-12T04:59:59;2.55;;;0.55;;
45254;SDS011;30989;52.078;21.014;2023-02-12T05:02:24;1.30;;;0.70;;
45254;SDS011;30989;52.078;21.014;2023-02-12T05:04:50;2.40;;;0.77;;
45254;SDS011;30989;52.078;21.014;2023-02-12T05:07:15;1.17;;;0.75;;
45254;SDS011;30989;52.078;21.014;2023-02-12T05:09:41;4.85;;;1.10;;
45254;SDS011;30989;52.078;21.014;2023-02-12T05:12:06;2.90;;;0.90;;
45254;SDS011;30989;52.078;21.014;2023-02-12T05:14:32;3.72;;;0.93;;
45254;SDS011;30989;52.078;21.014;2023-02-12T05:16:58;2.95;;;1.00;;
45254;SDS011;30989;52.078;21.014;2023-02-12T05:19:23;1.23;;;0.68;;
45254;SDS011;30989;52.078;21.014;2023-02-12T05:21:49;2.78;;;0.82;;
45254;SDS011;30989;52.078;21.014;2023-02-12T05:24:15;3.13;;;1.17;;
45254;SDS011;30989;52.078;21.014;2023-02-12T05:26:41;2.00;;;1.17;;
45254;SDS011;30989;52.078;21.014;2023-02-12T05:29:07;4.32;;;1.33;;
45254;SDS011;30989;52.078;21.014;2023-02-12T05:31:33;2.80;;;1.33;;
45254;SDS011;30989;52.078;21.014;2023-02-12T05:33:58;3.72;;;1.33;;
45254;SDS011;30989;52.078;21.014;2023-02-12T05:36:24;3.42;;;2.10;;
45254;SDS011;30989;52.078;21.014;2023-02-12T05:38:50;2.45;;;1.30;;
45254;SDS011;30989;52.078;21.014;2023-02-12T05:41:18;3.15;;;1.20;;
45254;SDS011;30989;52.078;21.014;2023-02-12T05:43:46;3.47;;;1.27;;
45254;SDS011;30989;52.078;21.014;2023-02-12T05:46:12;5.03;;;1.10;;
45254;SDS011;30989;52.078;21.014;2023-02-12T05:48:37;2.45;;;1.30;;
45254;SDS011;30989;52.078;21.014;2023-02-12T05:51:08;2.45;;;1.15;;
45254;SDS011;30989;52.078;21.014;2023-02-12T05:53:41;5.28;;;1.42;;
45254;SDS011;30989;52.078;21.014;2023-02-12T05:56:11;2.22;;;1.23;;
45254;SDS011;30989;52.078;21.014;2023-02-12T05:58:39;2.92;;;1.00;;
45254;SDS011;30989;52.078;21.014;2023-02-12T06:01:12;3.38;;;1.33;;
45254;SDS011;30989;52.078;21.014;2023-02-12T06:03:42;2.05;;;1.00;;
45254;SDS011;30989;52.078;21.014;2023-02-12T06:06:08;3.35;;;1.10;;
45254;SDS011;30989;52.078;21.014;2023-02-12T06:08:34;3.63;;;1.30;;
45254;SDS011;30989;52.078;21.014;2023-02-12T06:11:04;4.82;;;1.67;;
45254;SDS011;30989;52.078;21.014;2023-02-12T06:13:31;2.33;;;1.17;;
45254;SDS011;30989;52.078;21.014;2023-02-12T06:15:57;3.13;;;1.27;;
45254;SDS011;30989;52.078;21.014;2023-02-12T06:18:24;2.55;;;1.27;;
45254;SDS011;30989;52.078;21.014;2023-02-12T06:20:52;2.55;;;1.20;;
45254;SDS011;30989;52.078;21.014;2023-02-12T06:23:21;2.38;;;1.05;;
45254;SDS011;30989;52.078;21.014;2023-02-12T06:25:48;2.20;;;1.33;;
45254;SDS011;30989;52.078;21.014;2023-02-12T06:28:15;2.90;;;1.10;;
45254;SDS011;30989;52.078;21.014;2023-02-12T06:30:41;3.80;;;1.33;;
45254;SDS011;30989;52.078;21.014;2023-02-12T06:33:07;6.60;;;1.15;;
45254;SDS011;30989;52.078;21.014;2023-02-12T06:35:33;3.55;;;1.20;;
45254;SDS011;30989;52.078;21.014;2023-02-12T06:38:00;4.30;;;1.38;;
45254;SDS011;30989;52.078;21.014;2023-02-12T06:40:25;4.30;;;1.55;;
45254;SDS011;30989;52.078;21.014;2023-02-12T06:42:51;2.50;;;1.13;;
45254;SDS011;30989;52.078;21.014;2023-02-12T06:45:16;3.08;;;1.33;;
45254;SDS011;30989;52.078;21.014;2023-02-12T06:47:42;2.40;;;1.23;;
45254;SDS011;30989;52.078;21.014;2023-02-12T06:50:07;4.57;;;1.40;;
45254;SDS011;30989;52.078;21.014;2023-02-12T06:52:33;2.53;;;1.25;;
45254;SDS011;30989;52.078;21.014;2023-02-12T06:54:58;6.05;;;1.30;;
45254;SDS011;30989;52.078;21.014;2023-02-12T06:57:24;2.00;;;1.17;;
45254;SDS011;30989;52.078;21.014;2023-02-12T06:59:49;4.20;;;1.40;;
45254;SDS011;30989;52.078;21.014;2023-02-12T07:02:15;3.72;;;1.02;;
45254;SDS011;30989;52.078;21.014;2023-02-12T07:04:40;2.22;;;1.00;;
45254;SDS011;30989;52.078;21.014;2023-02-12T07:07:05;4.38;;;1.50;;
45254;SDS011;30989;52.078;21.014;2023-02-12T07:09:31;4.50;;;1.33;;
45254;SDS011;30989;52.078;21.014;2023-02-12T07:11:57;2.65;;;1.50;;
45254;SDS011;30989;52.078;21.014;2023-02-12T07:14:23;6.93;;;1.52;;
45254;SDS011;30989;52.078;21.014;2023-02-12T07:16:49;3.53;;;1.48;;
45254;SDS011;30989;52.078;21.014;2023-02-12T07:19:14;2.45;;;1.48;;
45254;SDS011;30989;52.078;21.014;2023-02-12T07:21:40;2.83;;;1.45;;
45254;SDS011;30989;52.078;21.014;2023-02-12T07:24:06;3.88;;;1.58;;
45254;SDS011;30989;52.078;21.014;2023-02-12T07:26:36;4.78;;;2.03;;
45254;SDS011;30989;52.078;21.014;2023-02-12T07:29:01;3.83;;;1.73;;
45254;SDS011;30989;52.078;21.014;2023-02-12T07:31:27;2.67;;;1.33;;
45254;SDS011;30989;52.078;21.014;2023-02-12T07:33:54;2.83;;;1.58;;
45254;SDS011;30989;52.078;21.014;2023-02-12T07:36:20;5.90;;;2.13;;
45254;SDS011;30989;52.078;21.014;2023-02-12T07:38:46;4.88;;;1.52;;
45254;SDS011;30989;52.078;21.014;2023-02-12T07:41:34;5.03;;;1.90;;
45254;SDS011;30989;52.078;21.014;2023-02-12T07:43:59;3.35;;;1.48;;
45254;SDS011;30989;52.078;21.014;2023-02-12T07:46:35;3.17;;;1.33;;
45254;SDS011;30989;52.078;21.014;2023-02-12T07:49:03;2.95;;;1.85;;
45254;SDS011;30989;52.078;21.014;2023-02-12T07:51:31;3.92;;;2.17;;
45254;SDS011;30989;52.078;21.014;2023-02-12T07:53:58;3.25;;;1.33;;
45254;SDS011;30989;52.078;21.014;2023-02-12T07:56:26;3.70;;;1.45;;
45254;SDS011;30989;52.078;21.014;2023-02-12T07:59:04;4.03;;;1.52;;
45254;SDS011;30989;52.078;21.014;2023-02-12T08:01:33;3.05;;;1.63;;
45254;SDS011;30989;52.078;21.014;2023-02-12T08:04:00;3.33;;;1.40;;
45254;SDS011;30989;52.078;21.014;2023-02-12T08:06:41;4.05;;;2.33;;
45254;SDS011;30989;52.078;21.014;2023-02-12T08:09:09;4.35;;;1.75;;
45254;SDS011;30989;52.078;21.014;2023-02-12T08:11:36;4.93;;;2.03;;
45254;SDS011;30989;52.078;21.014;2023-02-12T08:14:02;3.63;;;1.52;;
45254;SDS011;30989;52.078;21.014;2023-02-12T08:16:29;4.95;;;2.17;;
45254;SDS011;30989;52.078;21.014;2023-02-12T08:18:55;17.60;;;6.60;;
45254;SDS011;30989;52.078;21.014;2023-02-12T08:21:23;4.50;;;1.85;;
45254;SDS011;30989;52.078;21.014;2023-02-12T08:23:50;2.78;;;1.58;;
45254;SDS011;30989;52.078;21.014;2023-02-12T08:26:21;3.13;;;1.58;;
45254;SDS011;30989;52.078;21.014;2023-02-12T08:28:53;4.28;;;1.05;;
45254;SDS011;30989;52.078;21.014;2023-02-12T08:31:31;4.07;;;1.83;;
45254;SDS011;30989;52.078;21.014;2023-02-12T08:34:02;2.88;;;1.55;;
45254;SDS011;30989;52.078;21.014;2023-02-12T08:36:29;4.28;;;1.67;;
45254;SDS011;30989;52.078;21.014;2023-02-12T08:38:59;3.40;;;1.53;;
45254;SDS011;30989;52.078;21.014;2023-02-12T08:41:26;4.18;;;1.52;;
45254;SDS011;30989;52.078;21.014;2023-02-12T08:43:53;3.67;;;1.55;;
45254;SDS011;30989;52.078;21.014;2023-02-12T08:46:23;4.80;;;1.80;;
45254;SDS011;30989;52.078;21.014;2023-02-12T08:48:57;3.65;;;1.50;;
45254;SDS011;30989;52.078;21.014;2023-02-12T08:51:25;5.30;;;1.77;;
45254;SDS011;30989;52.078;21.014;2023-02-12T08:53:55;3.40;;;1.35;;
45254;SDS011;30989;52.078;21.014;2023-02-12T08:56:22;4.10;;;1.48;;
45254;SDS011;30989;52.078;21.014;2023-02-12T08:58:48;3.58;;;1.70;;
45254;SDS011;30989;52.078;21.014;2023-02-12T09:01:15;2.67;;;1.30;;
45254;SDS011;30989;52.078;21.014;2023-02-12T09:03:46;3.27;;;1.43;;
45254;SDS011;30989;52.078;21.014;2023-02-12T09:06:12;3.00;;;1.45;;
45254;SDS011;30989;52.078;21.014;2023-02-12T09:08:39;2.65;;;1.30;;
45254;SDS011;30989;52.078;21.014;2023-02-12T09:11:15;6.00;;;1.95;;
45254;SDS011;30989;52.078;21.014;2023-02-12T09:13:43;3.90;;;1.83;;
45254;SDS011;30989;52.078;21.014;2023-02-12T09:16:11;3.40;;;1.60;;
45254;SDS011;30989;52.078;21.014;2023-02-12T09:18:37;2.80;;;1.30;;
45254;SDS011;30989;52.078;21.014;2023-02-12T09:21:07;3.55;;;1.42;;
45254;SDS011;30989;52.078;21.014;2023-02-12T09:23:35;3.72;;;1.35;;
45254;SDS011;30989;52.078;21.014;2023-02-12T09:26:05;4.85;;;1.75;;
45254;SDS011;30989;52.078;21.014;2023-02-12T09:28:32;3.00;;;1.48;;
45254;SDS011;30989;52.078;21.014;2023-02-12T09:31:03;9.00;;;2.85;;
45254;SDS011;30989;52.078;21.014;2023-02-12T09:33:29;6.45;;;2.05;;
45254;SDS011;30989;52.078;21.014;2023-02-12T09:35:55;3.08;;;1.60;;
45254;SDS011;30989;52.078;21.014;2023-02-12T09:38:24;5.15;;;1.60;;
45254;SDS011;30989;52.078;21.014;2023-02-12T09:51:14;4.30;;;1.65;;
45254;SDS011;30989;52.078;21.014;2023-02-12T09:53:41;4.45;;;2.10;;
45254;SDS011;30989;52.078;21.014;2023-02-12T09:56:17;3.70;;;1.60;;
45254;SDS011;30989;52.078;21.014;2023-02-12T09:58:46;5.78;;;2.00;;
45254;SDS011;30989;52.078;21.014;2023-02-12T10:01:17;8.10;;;2.53;;
45254;SDS011;30989;52.078;21.014;2023-02-12T10:03:46;10.95;;;2.20;;
45254;SDS011;30989;52.078;21.014;2023-02-12T10:06:15;3.40;;;1.67;;
45254;SDS011;30989;52.078;21.014;2023-02-12T10:16:33;4.65;;;2.10;;
45254;SDS011;30989;52.078;21.014;2023-02-12T10:19:07;6.03;;;1.27;;
45254;SDS011;30989;52.078;21.014;2023-02-12T10:27:12;5.50;;;1.30;;
45254;SDS011;30989;52.078;21.014;2023-02-12T10:29:40;3.78;;;1.45;;
45254;SDS011;30989;52.078;21.014;2023-02-12T10:32:19;12.75;;;3.80;;
45254;SDS011;30989;52.078;21.014;2023-02-12T10:34:49;7.28;;;1.90;;
45254;SDS011;30989;52.078;21.014;2023-02-12T10:40:39;4.30;;;2.22;;
45254;SDS011;30989;52.078;21.014;2023-02-12T10:42:49;6.68;;;2.20;;
45254;SDS011;30989;52.078;21.014;2023-02-12T10:45:17;3.08;;;1.48;;
45254;SDS011;30989;52.078;21.014;2023-02-12T10:47:45;4.50;;;1.63;;
45254;SDS011;30989;52.078;21.014;2023-02-12T10:50:27;4.43;;;1.85;;
45254;SDS011;30989;52.078;21.014;2023-02-12T10:53:01;4.07;;;1.80;;
45254;SDS011;30989;52.078;21.014;2023-02-12T10:55:30;5.07;;;1.70;;
45254;SDS011;30989;52.078;21.014;2023-02-12T10:57:59;4.45;;;1.45;;
45254;SDS011;30989;52.078;21.014;2023-02-12T11:00:33;4.97;;;1.58;;
45254;SDS011;30989;52.078;21.014;2023-02-12T11:05:41;3.25;;;1.65;;
45254;SDS011;30989;52.078;21.014;2023-02-12T11:10:54;5.03;;;1.35;;
45254;SDS011;30989;52.078;21.014;2023-02-12T11:13:55;6.50;;;1.80;;
45254;SDS011;30989;52.078;21.014;2023-02-12T11:19:07;3.50;;;1.83;;
45254;SDS011;30989;52.078;21.014;2023-02-12T11:21:43;3.72;;;1.70;;
45254;SDS011;30989;52.078;21.014;2023-02-12T11:27:23;4.43;;;2.08;;
45254;SDS011;30989;52.078;21.014;2023-02-12T11:32:34;3.65;;;1.80;;
45254;SDS011;30989;52.078;21.014;2023-02-12T11:37:30;6.93;;;1.80;;
45254;SDS011;30989;52.078;21.014;2023-02-12T11:39:57;4.00;;;1.65;;
45254;SDS011;30989;52.078;21.014;2023-02-12T11:42:24;5.40;;;2.22;;
45254;SDS011;30989;52.078;21.014;2023-02-12T11:44:59;5.55;;;2.22;;
45254;SDS011;30989;52.078;21.014;2023-02-12T11:47:27;5.32;;;2.70;;
45254;SDS011;30989;52.078;21.014;2023-02-12T11:49:55;10.15;;;5.78;;
45254;SDS011;30989;52.078;21.014;2023-02-12T11:52:27;6.45;;;1.98;;
45254;SDS011;30989;52.078;21.014;2023-02-12T11:55:06;6.60;;;2.20;;
45254;SDS011;30989;52.078;21.014;2023-02-12T11:57:46;5.43;;;2.28;;
45254;SDS011;30989;52.078;21.014;2023-02-12T12:02:52;5.10;;;2.22;;
45254;SDS011;30989;52.078;21.014;2023-02-12T12:05:22;4.55;;;2.22;;
45254;SDS011;30989;52.078;21.014;2023-02-12T12:07:58;5.60;;;1.88;;
45254;SDS011;30989;52.078;21.014;2023-02-12T12:10:33;4.35;;;2.15;;
45254;SDS011;30989;52.078;21.014;2023-02-12T12:13:05;3.17;;;1.83;;
45254;SDS011;30989;52.078;21.014;2023-02-12T12:15:39;6.25;;;2.63;;
45254;SDS011;30989;52.078;21.014;2023-02-12T12:18:36;5.63;;;2.33;;
45254;SDS011;30989;52.078;21.014;2023-02-12T12:21:39;6.65;;;2.60;;
45254;SDS011;30989;52.078;21.014;2023-02-12T12:30:22;6.47;;;2.45;;
45254;SDS011;30989;52.078;21.014;2023-02-12T12:32:52;5.43;;;2.30;;
45254;SDS011;30989;52.078;21.014;2023-02-12T12:35:22;4.40;;;2.10;;
45254;SDS011;30989;52.078;21.014;2023-02-12T12:43:45;4.70;;;2.40;;
45254;SDS011;30989;52.078;21.014;2023-02-12T12:47:14;5.90;;;2.95;;
45254;SDS011;30989;52.078;21.014;2023-02-12T12:52:18;6.93;;;2.80;;
45254;SDS011;30989;52.078;21.014;2023-02-12T13:11:22;5.22;;;2.25;;
45254;SDS011;30989;52.078;21.014;2023-02-12T13:13:56;11.95;;;2.88;;
45254;SDS011;30989;52.078;21.014;2023-02-12T13:16:33;6.45;;;2.78;;
45254;SDS011;30989;52.078;21.014;2023-02-12T13:21:52;7.45;;;2.80;;
45254;SDS011;30989;52.078;21.014;2023-02-12T13:26:58;7.28;;;3.10;;
45254;SDS011;30989;52.078;21.014;2023-02-12T13:34:27;6.03;;;2.50;;
45254;SDS011;30989;52.078;21.014;2023-02-12T13:36:56;6.40;;;2.60;;
45254;SDS011;30989;52.078;21.014;2023-02-12T13:42:15;4.88;;;2.38;;
45254;SDS011;30989;52.078;21.014;2023-02-12T13:55:28;5.47;;;2.88;;
45254;SDS011;30989;52.078;21.014;2023-02-12T14:01:11;9.25;;;2.70;;
45254;SDS011;30989;52.078;21.014;2023-02-12T14:07:02;10.02;;;3.47;;
45254;SDS011;30989;52.078;21.014;2023-02-12T14:12:08;7.25;;;2.97;;
45254;SDS011;30989;52.078;21.014;2023-02-12T14:14:43;7.93;;;3.13;;
45254;SDS011;30989;52.078;21.014;2023-02-12T14:27:45;4.77;;;2.37;;
45254;SDS011;30989;52.078;21.014;2023-02-12T14:37:54;7.95;;;2.70;;
45254;SDS011;30989;52.078;21.014;2023-02-12T14:43:44;9.63;;;3.72;;
45254;SDS011;30989;52.078;21.014;2023-02-12T14:54:14;12.40;;;4.22;;
45254;SDS011;30989;52.078;21.014;2023-02-12T14:56:49;12.73;;;4.65;;
45254;SDS011;30989;52.078;21.014;2023-02-12T14:59:17;11.27;;;3.95;;
45254;SDS011;30989;52.078;21.014;2023-02-12T15:01:46;12.20;;;5.10;;
45254;SDS011;30989;52.078;21.014;2023-02-12T15:04:18;12.60;;;5.13;;
45254;SDS011;30989;52.078;21.014;2023-02-12T15:07:12;20.05;;;5.68;;
45254;SDS011;30989;52.078;21.014;2023-02-12T15:09:57;11.10;;;4.82;;
45254;SDS011;30989;52.078;21.014;2023-02-12T15:12:38;9.95;;;4.82;;
45254;SDS011;30989;52.078;21.014;2023-02-12T15:15:30;12.35;;;4.88;;
45254;SDS011;30989;52.078;21.014;2023-02-12T15:18:03;14.50;;;5.03;;
45254;SDS011;30989;52.078;21.014;2023-02-12T15:20:43;12.48;;;4.75;;
45254;SDS011;30989;52.078;21.014;2023-02-12T15:25:59;11.45;;;4.82;;
45254;SDS011;30989;52.078;21.014;2023-02-12T15:28:27;11.00;;;5.07;;
45254;SDS011;30989;52.078;21.014;2023-02-12T15:30:58;12.48;;;5.43;;
45254;SDS011;30989;52.078;21.014;2023-02-12T15:33:29;13.30;;;5.50;;
45254;SDS011;30989;52.078;21.014;2023-02-12T15:35:56;14.27;;;5.95;;
45254;SDS011;30989;52.078;21.014;2023-02-12T15:38:29;13.50;;;5.93;;
45254;SDS011;30989;52.078;21.014;2023-02-12T15:40:58;13.18;;;6.25;;
45254;SDS011;30989;52.078;21.014;2023-02-12T15:43:26;17.80;;;6.28;;
45254;SDS011;30989;52.078;21.014;2023-02-12T15:45:55;17.65;;;6.65;;
45254;SDS011;30989;52.078;21.014;2023-02-12T15:48:22;18.25;;;5.85;;
45254;SDS011;30989;52.078;21.014;2023-02-12T15:50:56;15.25;;;6.55;;
45254;SDS011;30989;52.078;21.014;2023-02-12T15:53:31;19.88;;;7.53;;
45254;SDS011;30989;52.078;21.014;2023-02-12T15:55:58;16.20;;;6.30;;
45254;SDS011;30989;52.078;21.014;2023-02-12T15:58:29;20.10;;;6.00;;
45254;SDS011;30989;52.078;21.014;2023-02-12T16:01:17;11.13;;;5.45;;
45254;SDS011;30989;52.078;21.014;2023-02-12T16:03:52;13.73;;;6.22;;
45254;SDS011;30989;52.078;21.014;2023-02-12T16:06:21;13.75;;;6.55;;
45254;SDS011;30989;52.078;21.014;2023-02-12T16:08:48;17.73;;;7.72;;
45254;SDS011;30989;52.078;21.014;2023-02-12T16:11:20;17.90;;;6.88;;
45254;SDS011;30989;52.078;21.014;2023-02-12T16:16:22;17.70;;;7.47;;
45254;SDS011;30989;52.078;21.014;2023-02-12T16:21:45;19.20;;;7.82;;
45254;SDS011;30989;52.078;21.014;2023-02-12T16:24:19;16.65;;;7.22;;
45254;SDS011;30989;52.078;21.014;2023-02-12T16:26:48;17.10;;;6.75;;
45254;SDS011;30989;52.078;21.014;2023-02-12T16:29:16;20.15;;;8.15;;
45254;SDS011;30989;52.078;21.014;2023-02-12T16:31:52;19.65;;;8.55;;
45254;SDS011;30989;52.078;21.014;2023-02-12T16:34:33;23.35;;;8.65;;
45254;SDS011;30989;52.078;21.014;2023-02-12T16:37:02;35.05;;;10.30;;
45254;SDS011;30989;52.078;21.014;2023-02-12T16:42:24;24.20;;;11.68;;
45254;SDS011;30989;52.078;21.014;2023-02-12T16:44:53;26.73;;;10.93;;
45254;SDS011;30989;52.078;21.014;2023-02-12T16:47:20;29.38;;;12.90;;
45254;SDS011;30989;52.078;21.014;2023-02-12T16:49:52;37.83;;;15.32;;
45254;SDS011;30989;52.078;21.014;2023-02-12T16:52:26;49.10;;;19.17;;
45254;SDS011;30989;52.078;21.014;2023-02-12T16:57:17;57.90;;;22.85;;
45254;SDS011;30989;52.078;21.014;2023-02-12T16:59:43;54.90;;;22.10;;
45254;SDS011;30989;52.078;21.014;2023-02-12T17:02:12;60.38;;;24.73;;
45254;SDS011;30989;52.078;21.014;2023-02-12T17:04:39;66.18;;;25.52;;
45254;SDS011;30989;52.078;21.014;2023-02-12T17:07:23;55.97;;;22.33;;
45254;SDS011;30989;52.078;21.014;2023-02-12T17:09:52;64.22;;;24.13;;
45254;SDS011;30989;52.078;21.014;2023-02-12T17:12:17;59.38;;;23.80;;
45254;SDS011;30989;52.078;21.014;2023-02-12T17:14:43;53.72;;;20.63;;
45254;SDS011;30989;52.078;21.014;2023-02-12T17:17:08;62.47;;;22.58;;
45254;SDS011;30989;52.078;21.014;2023-02-12T17:19:34;56.95;;;22.15;;
45254;SDS011;30989;52.078;21.014;2023-02-12T17:21:59;52.42;;;20.55;;
45254;SDS011;30989;52.078;21.014;2023-02-12T17:24:25;56.60;;;21.27;;
45254;SDS011;30989;52.078;21.014;2023-02-12T17:26:53;47.25;;;20.20;;
45254;SDS011;30989;52.078;21.014;2023-02-12T17:29:20;58.17;;;22.00;;
45254;SDS011;30989;52.078;21.014;2023-02-12T17:31:47;56.97;;;21.08;;
45254;SDS011;30989;52.078;21.014;2023-02-12T17:34:13;49.05;;;19.80;;
45254;SDS011;30989;52.078;21.014;2023-02-12T17:36:39;49.83;;;21.08;;
45254;SDS011;30989;52.078;21.014;2023-02-12T17:39:05;44.72;;;18.23;;
45254;SDS011;30989;52.078;21.014;2023-02-12T17:41:33;36.95;;;15.73;;
45254;SDS011;30989;52.078;21.014;2023-02-12T17:43:59;36.42;;;16.55;;
45254;SDS011;30989;52.078;21.014;2023-02-12T17:46:25;37.40;;;16.65;;
45254;SDS011;30989;52.078;21.014;2023-02-12T17:48:52;37.90;;;15.02;;
45254;SDS011;30989;52.078;21.014;2023-02-12T17:51:18;32.85;;;13.98;;
45254;SDS011;30989;52.078;21.014;2023-02-12T17:53:44;35.80;;;16.27;;
45254;SDS011;30989;52.078;21.014;2023-02-12T17:56:15;36.30;;;15.07;;
45254;SDS011;30989;52.078;21.014;2023-02-12T17:58:42;35.47;;;15.80;;
45254;SDS011;30989;52.078;21.014;2023-02-12T18:01:09;36.65;;;15.35;;
45254;SDS011;30989;52.078;21.014;2023-02-12T18:03:37;34.88;;;15.90;;
45254;SDS011;30989;52.078;21.014;2023-02-12T18:06:03;35.50;;;13.25;;
45254;SDS011;30989;52.078;21.014;2023-02-12T18:08:30;36.28;;;15.77;;
45254;SDS011;30989;52.078;21.014;2023-02-12T18:10:56;39.97;;;14.88;;